Terminal Aerodrome Forecast
Issued by NWS

Home | Current Version | Previous Version | Graphics & Text | Print | Product List | Glossary On
Versions: 1 2 3 4 5 6 7 8 9 10 11 12 13 14 15 16 17 18 19 20 21 22 23 24
000
FTUS43 KDLH 240900 AAB
TAFBRD
TAF AMD
KBRD 240947Z 2410/2506 VRB02KT 3SM BR SCT250
      TEMPO 2410/2412 3/4SM BR VV001
     FM241300 16003KT P6SM SCT250
     FM241800 19010KT P6SM SCT050 BKN100=

USA.gov is the U.S. government's official web portal to all federal, state and local government web resources and services.